Tiempo atmosférico en la estación meteorológica de Vitoria Gasteiz Aeropuerto Foronda, Araba/Álava (513 m.)



Fecha
DESCASC
Temp. máxima en grados centígrados (hora)
DESCASC
Temp. mínima en grados centígrados (hora)
DESCASC
Temp. media en grados centígrados
DESCASC
Racha de viento máxima en m/sg (hora)
DESCASC
Velocidad máxima media en intervalos de 10 minutos(hora)
DESCASC
Precipitaciones diarias en mm
DESCASC
Precipitaciones de 00:00 a 06:00 en mm
DESCASC
Precipitaciones de 06:00 a 12:00 en mm
DESCASC
Precipitaciones de 12:00 a 18:00 en mm
DESCASC
Precipitaciones de 18:00 a 24:00 en mm
DESCASC

Gráficas

Temp. máximas Temp. mínimas Temp. medias Precipitaciones Rachas de viento máximas Velocidades máximas media en intervalos de 10 minutos

Datos horarios

Fecha y hora oficial Temperatura (ºC) Velocidad del viento (km/h) Dirección del viento Racha (km/h) Dirección de racha Precipitación (mm) Presión (hPa) Tendencia (hPa) Humedad (%)
2020-01-18 23:00:00 4.2 6 Sur 9 Sur 1 961.3 0.3 94
2020-01-18 22:00:00 -- 7 Sur 22 Este 0.4 960.9 1.1 --
2020-01-18 21:00:00 4.9 10 Este 21 Oeste 4.2 960.8 2 90
2020-01-18 20:00:00 5.5 6 Noroeste 35 Norte 2.4 961 1.6 89
2020-01-18 19:00:00 5.9 20 Norte 35 Norte 5.3 959.8 0.3 97
2020-01-18 18:00:00 6.3 6 Sudoeste 13 Sur 1.4 958.8 -0.7 97
2020-01-18 17:00:00 6.7 4 Oeste 13 Este 0.7 959.4 -1.3 92
2020-01-18 16:00:00 8.1 6 Norte 13 Oeste 0 959.5 -2.8 76
2020-01-18 15:00:00 8 9 Oeste 22 Sudoeste 0 959.5 -4.9 72
2020-01-18 14:00:00 8.5 12 Sudoeste 18 Oeste 0 960.7 -4.6 70
2020-01-18 13:00:00 8.6 11 Sudoeste 18 Sudoeste 0 962.3 -3.4 68
2020-01-18 12:00:00 6.3 15 Sudoeste 22 Sudoeste 0 964.4 -2.1 76
2020-01-18 11:00:00 6 10 Sudoeste 21 Sudoeste 0 965.3 -1.7 76
2020-01-18 10:00:00 2.7 4 Sudoeste 9 Sur 0 965.7 -1.9 95
2020-01-18 09:00:00 0.9 2 Este 9 Nordeste 0 966.5 -1.6 96
2020-01-18 08:00:00 1.3 5 Norte 15 Noroeste 0 967 -2.1 96
2020-01-18 07:00:00 1.8 5 Este 9 Este 0 967.6 -1.6 96
2020-01-18 06:00:00 1 9 Nordeste 13 Nordeste 0 968.1 -1.5 97
2020-01-18 05:00:00 1 0 Calma 9 Sudoeste 0 969.1 -1 98
2020-01-18 04:00:00 0.7 6 Oeste 8 Oeste 0 969.2 -1.6 98
2020-01-18 03:00:00 0.2 0 Calma 13 Nordeste 0 969.6 -1.4 98
2020-01-18 02:00:00 -0.9 0 Calma 8 Sur 0 970.1 -1.5 97
2020-01-18 01:00:00 -0.1 4 Oeste 11 Norte 0 970.8 -1.2 96
2020-01-18 00:00:00 0.6 6 Nordeste 8 Nordeste 0 971 -0.9 94
2020-01-17 23:00:00 2.4 4 Nordeste 8 Oeste 0 971.6 -0.2 90
2020-01-17 22:00:00 4.5 3 Oeste 8 Oeste 0 972 0.6 88
2020-01-17 21:00:00 5.3 4 Nordeste 8 Nordeste 0 971.9 1 87
2020-01-17 20:00:00 5.7 5 Este 9 Este 0 971.8 1.7 85
2020-01-17 19:00:00 6.1 7 Noroeste 11 Noroeste 0 971.4 2 72
2020-01-17 18:00:00 6.1 4 Nordeste 18 Norte 0 970.9 1.9 75
2020-01-17 17:00:00 8.2 2 Norte 18 Nordeste 0 970.1 1.4 65
2020-01-17 16:00:00 8.6 13 Norte 32 Noroeste 0 969.4 0.8 64
2020-01-17 15:00:00 7.7 27 Noroeste 41 Norte 0 969 0.1 70
2020-01-17 14:00:00 9.3 5 Norte 26 Noroeste 0 968.7 0.7 68
2020-01-17 13:00:00 8.4 13 Noroeste 30 Noroeste 0 968.6 1.8 71
2020-01-17 12:00:00 8 15 Oeste 28 Noroeste 0 968.9 3.1 74
2020-01-17 11:00:00 7.3 17 Noroeste 32 Norte 0 968 3 77
2020-01-17 10:00:00 7.5 9 Nordeste 17 Noroeste 0 966.8 2.8 90
2020-01-17 09:00:00 7.4 9 Sudoeste 15 Sudoeste 0 965.8 2.3 87
2020-01-17 08:00:00 7.6 9 Oeste 32 Sudoeste 0 965 1.2 87
2020-01-17 07:00:00 8.5 22 Sudoeste 33 Sudoeste 0.1 964 0.6 84
2020-01-17 06:00:00 8.7 14 Sudoeste 22 Sudoeste 0 963.5 0.2 78
2020-01-17 05:00:00 8.9 8 Sur 32 Sudoeste 0 963.8 1.4 74
2020-01-17 04:00:00 8.8 26 Sudoeste 39 Sudoeste 0 963.4 1 73
2020-01-17 03:00:00 9.4 18 Sudoeste 37 Sudoeste 0 963.3 0.2 70
2020-01-17 02:00:00 10.8 28 Sudoeste 59 Sudoeste 0 962.4 -0.7 61
2020-01-17 01:00:00 10.7 23 Sudoeste 46 Sudoeste 0 962.4 0 61
2020-01-17 00:00:00 10.8 29 Sudoeste 46 Sudoeste 0 963.1 1.3 61
2020-01-16 23:00:00 9.1 18 Sudoeste 30 Sudoeste 0 963.1 1.4 72
2020-01-16 22:00:00 9.1 10 Oeste 24 Oeste 0 962.4 1.5 76
2020-01-16 21:00:00 7.9 9 Oeste 17 Oeste 0 961.8 0.7 84
2020-01-16 20:00:00 8.3 7 Sudoeste 18 Sudoeste 0 961.7 0.7 83
2020-01-16 19:00:00 9 10 Sudoeste 21 Sudoeste 0 960.9 -0.4 78
2020-01-16 18:00:00 10.8 14 Sudoeste 21 Sudoeste 0 961.1 -0.2 73
2020-01-16 17:00:00 13.9 19 Sudoeste 32 Sur 0 961 -1.2 60
2020-01-16 16:00:00 13.7 19 Sudoeste 33 Sudoeste 0 961.3 -2.1 61
2020-01-16 15:00:00 12.9 24 Sudoeste 32 Sudoeste 0 961.3 -3 64
2020-01-16 14:00:00 11.4 24 Sudoeste 35 Sudoeste 0 962.2 -2.3 67
2020-01-16 13:00:00 10.8 23 Sudoeste 32 Sudoeste 0 963.4 -1.2 69
2020-01-16 12:00:00 10.3 19 Sudoeste 26 Oeste 0 964.3 0.1 72
2020-01-16 11:00:00 5.6 17 Sudoeste 24 Sudoeste 0 964.5 0.3 87
2020-01-16 10:00:00 4.7 12 Oeste 18 Sudoeste 0 964.6 1.1 89
2020-01-16 09:00:00 4.3 7 Oeste 24 Sudoeste 0 964.2 0.7 89
2020-01-16 08:00:00 5 15 Sudoeste 26 Sudoeste 0 964.2 0.5 86
2020-01-16 07:00:00 4.7 12 Oeste 26 Oeste 0 963.5 -0.4 87
2020-01-16 06:00:00 3.7 10 Sur 18 Sudoeste 0 963.5 -0.7 91
2020-01-16 05:00:00 5.5 12 Oeste 17 Oeste 0 963.7 -0.5 85
2020-01-16 04:00:00 6.1 10 Sudoeste 13 Sudoeste 0 963.9 -0.7 86
2020-01-16 03:00:00 5 4 Nordeste 13 Sudoeste 0 964.2 -0.4 89
2020-01-16 02:00:00 3.9 2 Este 13 Este 0 964.2 -0.4 94
2020-01-16 01:00:00 3.1 2 Oeste 13 Sudoeste 0 964.6 0 96
2020-01-16 00:00:00 2.4 4 Este 15 Oeste 0 964.6 0.2 90
2020-01-15 23:00:00 5 13 Sudoeste 17 Sudoeste 0 964.6 0.1 89
2020-01-15 22:00:00 3.1 2 Nordeste 22 Sudoeste 0 964.6 0.8 89
2020-01-15 21:00:00 3.2 4 Este 13 Sudoeste 0 964.4 1.2 87
2020-01-15 20:00:00 6.6 9 Sudoeste 18 Sudoeste 0 964.5 1.9 81
2020-01-15 19:00:00 7.2 14 Sudoeste 21 Sudoeste 0 963.8 2.1 79
2020-01-15 18:00:00 9.2 12 Sudoeste 22 Sudoeste 0 963.2 1.7 73
2020-01-15 17:00:00 12.3 12 Sur 26 Sudoeste 0 962.6 1.3 62
2020-01-15 16:00:00 11.3 22 Sudoeste 32 Sur 0 961.7 0.3 64
2020-01-15 15:00:00 11.3 22 Sudoeste 33 Sudoeste 0 961.5 -0.4 62
2020-01-15 14:00:00 9.6 21 Sudoeste 28 Sudoeste 0 961.3 -0.1 66
2020-01-15 13:00:00 8 9 Oeste 18 Oeste 0 961.4 0.9 71
2020-01-15 12:00:00 8.1 10 Sudoeste 30 Sudoeste 0 961.9 2.3 71
2020-01-15 11:00:00 6.3 16 Sur 22 Sudoeste 0 961.4 2.3 75
2020-01-15 10:00:00 6.7 9 Sur 17 Sur 0 960.5 1.9 71
2020-01-15 09:00:00 5.4 11 Sudoeste 13 Oeste 0 959.6 1.3 78
2020-01-15 08:00:00 5.5 11 Sur 15 Sur 0 959.1 0.7 77
2020-01-15 07:00:00 5.2 10 Oeste 17 Sur 0 958.6 0 78
2020-01-15 06:00:00 6.1 12 Sudoeste 24 Oeste 0 958.3 -0.2 74
2020-01-15 05:00:00 6.3 9 Sudoeste 18 Oeste 0 958.4 0.1 75
2020-01-15 04:00:00 5 9 Sur 26 Sudoeste 0 958.6 0.3 77
2020-01-15 03:00:00 4.7 21 Oeste 30 Oeste 0 958.5 0 77
2020-01-15 02:00:00 5.3 13 Oeste 21 Sudoeste 0 958.3 0.1 74
2020-01-15 01:00:00 4.8 8 Oeste 24 Oeste 0 958.3 0 75
2020-01-15 00:00:00 5.5 14 Oeste 26 Oeste 0 958.5 0.5 72
2020-01-14 23:00:00 4.9 15 Oeste 28 Sudoeste 0 958.2 0.4 73
2020-01-14 22:00:00 6.2 17 Sudoeste 26 Sudoeste 0 958.3 0.6 68
2020-01-14 21:00:00 6.5 12 Oeste 30 Sudoeste 0 958 0.4 68
2020-01-14 20:00:00 7.3 11 Oeste 45 Sudoeste 0 957.8 0.4 65
2020-01-14 19:00:00 9.5 27 Sudoeste 55 Sur 0 957.7 0.2 57
2020-01-14 18:00:00 10.3 36 Sudoeste 59 Sur 0 957.6 -0.2 55
2020-01-14 17:00:00 11.6 36 Sudoeste 63 Sur 0 957.4 -0.7 54
2020-01-14 16:00:00 11.2 37 Sudoeste 52 Sudoeste 0 957.5 -2.1 55
2020-01-14 15:00:00 11.8 31 Sudoeste 61 Sudoeste 0 957.8 -2 53
2020-01-14 14:00:00 11.3 41 Sudoeste 59 Sudoeste 0 958.1 -1.7 56
2020-01-14 13:00:00 10.2 20 Sudoeste 46 Oeste 0 959.6 0.1 61
2020-01-14 12:00:00 8.2 21 Sudoeste 42 Sur 0 959.8 0.6 69
2020-01-14 11:00:00 7.2 28 Sur 48 Sudoeste 0 959.8 0.5 74
2020-01-14 10:00:00 7.3 27 Sudoeste 39 Sudoeste 0 959.5 0.7 75
2020-01-14 09:00:00 6.3 18 Sudoeste 33 Sudoeste 0 959.2 0.4 78
2020-01-14 08:00:00 6.3 19 Sur 35 Sur 0 959.3 0.2 78
2020-01-14 07:00:00 6.2 17 Sudoeste 30 Sudoeste 0 958.8 -0.6 77
2020-01-14 06:00:00 6.1 10 Sur 33 Sudoeste 0 958.8 -0.2 76
2020-01-14 05:00:00 6.1 15 Sur 46 Sudoeste 0 959.1 -0.1 75
2020-01-14 04:00:00 6 23 Sudoeste 52 Sudoeste 0 959.4 -0.4 73
2020-01-14 03:00:00 6.2 37 Sudoeste 59 Sudoeste 0 959 -1.3 70
2020-01-14 02:00:00 5.3 24 Sudoeste 37 Sur 0 959.2 -0.8 70
2020-01-14 01:00:00 4.9 21 Sudoeste 41 Sudoeste 0 959.8 -0.4 70
2020-01-14 00:00:00 5.5 26 Sudoeste 50 Sudoeste 0 960.3 0.4 68
2020-01-13 23:00:00 6.2 33 Sudoeste 54 Sudoeste 0 960 0.4 65
2020-01-13 22:00:00 6.2 37 Sudoeste 54 Sudoeste 0 960.2 0.3 66
2020-01-13 21:00:00 5.3 28 Sur 37 Sudoeste 0 959.9 -0.2 70
2020-01-13 20:00:00 5.9 18 Sur 37 Sudoeste 0 959.6 -0.7 67
2020-01-13 19:00:00 6.6 24 Sudoeste 37 Sudoeste 0 959.9 -0.3 66
2020-01-13 18:00:00 8 21 Sudoeste 32 Sudoeste 0 960.1 -0.5 58
2020-01-13 17:00:00 8.8 13 Sudoeste 33 Sudoeste 0 960.3 -1.1 57
2020-01-13 16:00:00 10 23 Sudoeste 33 Sudoeste 0 960.2 -2.7 52
2020-01-13 15:00:00 9.6 15 Sudoeste 33 Sudoeste 0 960.6 -3.2 57
2020-01-13 14:00:00 7.7 9 Sudoeste 24 Sudoeste 0 961.4 -2.6 65
2020-01-13 13:00:00 6.9 14 Sudoeste 24 Sudoeste 0 962.9 -1.2 71
2020-01-13 12:00:00 3.5 14 Sur 22 Sur 0 963.8 -0.5 92
2020-01-13 11:00:00 -0.3 4 Este 9 Nordeste 0 964 -0.6 100
2020-01-13 10:00:00 -1.3 8 Este 9 Este 0 964.1 -0.5 100
2020-01-13 09:00:00 -1.8 3 Norte 5 Nordeste 0 964.3 -0.8 99
2020-01-13 08:00:00 -1.8 2 Noroeste 5 Noroeste 0 964.6 -1.2 99
2020-01-13 07:00:00 -2.1 5 Nordeste 8 Nordeste 0 964.6 -2.1 99
2020-01-13 06:00:00 -2 0 Calma 4 Sudoeste 0 965.1 -1.9 99
2020-01-13 05:00:00 -2.2 0 Calma 5 Noroeste 0 965.8 -1.5 99
2020-01-13 04:00:00 -2.1 0 Calma 4 Noroeste 0 966.7 -1.5 100
2020-01-13 03:00:00 -2 0 Calma 5 Nordeste 0 967 -1.8 99
2020-01-13 02:00:00 -1.6 3 Nordeste 5 Nordeste 0 967.3 -1.5 99
2020-01-13 01:00:00 -1.5 3 Oeste 4 Oeste 0 968.2 -0.7 99
2020-01-13 00:00:00 -1.6 0 Calma 4 Noroeste 0 968.8 -0.5 99
2020-01-12 23:00:00 -2.2 2 Sudeste 4 Sudeste 0 968.8 -0.9 99
2020-01-12 22:00:00 -2.3 0 Calma 4 Sur 0 968.9 -0.5 98
2020-01-12 21:00:00 -1.6 0 Calma -- -- 0 969.3 -0.1 98
2020-01-12 20:00:00 -0.8 3 Este 5 Este 0 969.7 0.2 97
2020-01-12 19:00:00 1.6 3 Norte 5 Sur 0 969.4 -0.2 97
2020-01-12 18:00:00 3.4 3 Sudoeste 8 Oeste 0 969.4 -0.6 91
2020-01-12 17:00:00 3.7 6 Oeste 9 Oeste 0 969.5 -1.1 91
2020-01-12 16:00:00 3.6 2 Noroeste 8 Oeste 0 969.6 -2 92
2020-01-12 15:00:00 1.5 3 Norte 8 Norte 0 970 -2.3 99
2020-01-12 14:00:00 0.7 3 Noroeste 5 Noroeste 0 970.6 -1.8 100
2020-01-12 13:00:00 -0.4 3 Noroeste 8 Sudeste 0 971.6 -0.3 99
2020-01-12 12:00:00 -1.1 3 Noroeste 5 Noroeste 0 972.3 0.9 99
2020-01-12 11:00:00 -1.9 3 Sudeste 5 Sudeste 0 972.4 1.2 99
2020-01-12 10:00:00 -2.5 0 Calma 8 Sudoeste 0 971.9 0.8 99
2020-01-12 09:00:00 -2.6 3 Oeste 5 Oeste 0 971.4 0.8 99
2020-01-12 08:00:00 -2.5 3 Oeste 5 Oeste 0 971.2 0.4 99
2020-01-12 07:00:00 -2.5 0 Calma 5 Sudoeste 0 971.1 0.3 99
2020-01-12 06:00:00 -2.5 0 Calma 5 Sur 0 970.6 0.1 99
2020-01-12 05:00:00 -2.3 3 Sur 5 Sur 0 970.8 0.3 99
2020-01-12 04:00:00 -1.8 0 Calma 4 Nordeste 0 970.8 0.2 99
2020-01-12 03:00:00 -1.6 0 Calma 4 Este 0 970.5 -0.2 99
2020-01-12 02:00:00 -2.1 0 Calma -- -- -- 970.5 0.1 99
2020-01-12 01:00:00 -3.4 0 Calma -- -- 0 970.6 0.3 99
2020-01-12 00:00:00 -3.3 2 Este 4 Este 0 970.7 0.3 99
2020-01-11 23:00:00 -2.7 0 Calma 4 Este 0 970.4 0.1 98
2020-01-11 22:00:00 -1.5 3 Sudeste 5 Este 0 970.3 0.3 98
2020-01-11 21:00:00 -0.2 0 Calma 5 Este 0 970.4 0.9 97
2020-01-11 20:00:00 1.1 5 Nordeste 8 Este 0 970.3 0.9 94
2020-01-11 19:00:00 4 4 Sur 5 Sur 0 970 0.4 89
2020-01-11 18:00:00 7.6 2 Noroeste 8 Sur 0 969.5 -0.4 73
2020-01-11 17:00:00 10.2 5 Sur 13 Sur 0 969.4 -1.2 59
2020-01-11 16:00:00 10.2 8 Sudoeste 13 Sudoeste 0 969.6 -2.2 61
2020-01-11 15:00:00 9.6 6 Sur 11 Sur 0 969.9 -2.9 61
2020-01-11 14:00:00 8.9 8 Sudoeste 13 Sudoeste 0 970.6 -2.7 69
2020-01-11 13:00:00 6 4 Sudeste 8 Sudeste 0 971.8 -1.1 86
2020-01-11 12:00:00 2.9 2 Norte 5 Norte 0 972.8 0.1 99
2020-01-11 11:00:00 1.1 0 Calma 5 Sur 0 973.3 0.5 100
2020-01-11 10:00:00 0 0 Calma -- -- 0 972.9 0.4 100
2020-01-11 09:00:00 -0.3 2 Norte 8 Noroeste 0 972.7 0.3 100
2020-01-11 08:00:00 -0.7 6 Este 11 Este 0 972.8 0.3 100
2020-01-11 07:00:00 -1.8 8 Nordeste 11 Nordeste 0 972.5 -0.4 99
2020-01-11 06:00:00 -2.8 0 Calma -- -- 0 972.4 -0.6 99
2020-01-11 05:00:00 -2.9 2 Norte 5 Noroeste 0 972.5 -0.4 99
2020-01-11 04:00:00 -1.8 0 Calma 5 Este 0 972.9 0 99
2020-01-11 03:00:00 -1.4 2 Sudeste 8 Norte 0 973 -0.1 98
2020-01-11 02:00:00 0 2 Oeste 8 Sur 0 972.9 0.1 98
2020-01-11 01:00:00 1.1 5 Sudoeste 9 Sur 0 972.9 -0.2 98
2020-01-11 00:00:00 1.5 0 Calma 13 Nordeste 0 973.1 0.4 96
2020-01-10 23:00:00 2.6 8 Nordeste 18 Norte 0 972.8 0.2 95
2020-01-10 22:00:00 4.3 13 Norte 18 Norte 0 973.1 1.3 94
2020-01-10 21:00:00 4.8 5 Sudoeste 9 Oeste 0 972.7 1.2 92
2020-01-10 20:00:00 5.6 2 Norte 9 Nordeste 0 972.6 1.7 89
2020-01-10 19:00:00 6.1 3 Este 26 Norte 0 971.8 1.1 85
2020-01-10 18:00:00 7.1 14 Norte 26 Norte 0 971.5 1.5 78
2020-01-10 17:00:00 7.1 11 Norte 30 Norte 0 970.9 0.8 83
2020-01-10 16:00:00 7.4 15 Norte 30 Norte 0 970.7 0.3 84
2020-01-10 15:00:00 7.6 11 Noroeste 33 Norte 0 970 -0.4 82
2020-01-10 14:00:00 7.3 10 Noroeste 28 Noroeste 0 970.1 -0.2 87
2020-01-10 13:00:00 7.2 14 Oeste 22 Oeste 0 970.4 0.8 86
2020-01-10 12:00:00 6.8 16 Noroeste 28 Oeste 0 970.4 1.3 87
2020-01-10 11:00:00 6.1 11 Oeste 18 Noroeste 0 970.3 1.4 89
2020-01-10 10:00:00 5.4 6 Oeste 26 Noroeste 0 969.6 1.3 88
2020-01-10 09:00:00 4.6 9 Sudoeste 13 Oeste 0 969.1 1.6 91
2020-01-10 08:00:00 5 6 Sudoeste 11 Sudoeste 0 968.9 1.8 87
2020-01-10 07:00:00 4.9 8 Sur 15 Oeste 0 968.3 1.1 90
2020-01-10 06:00:00 5.2 11 Oeste 22 Noroeste 0.1 967.5 0.5 87
2020-01-10 05:00:00 4.6 8 Oeste 17 Noroeste 0 967.1 0.6 94
2020-01-10 04:00:00 5.2 6 Oeste 30 Noroeste 0 967.2 1 89
2020-01-10 03:00:00 5.1 8 Norte 15 Norte 0 967 1 90
2020-01-10 02:00:00 5.7 5 Nordeste -- -- -- 966.5 0.7 81
2020-01-10 01:00:00 6 6 Norte 9 Norte 0 966.2 1.3 85
2020-01-10 00:00:00 6.9 3 Oeste 22 Norte 0.1 966 1.6 86
2020-01-09 23:00:00 6.6 5 Nordeste 11 Nordeste 0 965.8 1.3 98
2020-01-09 22:00:00 6.6 4 Sudeste 8 Sur 0.1 964.9 0.4 98
2020-01-09 21:00:00 6.8 0 Calma 9 Sur 1.4 964.4 0 97
2020-01-09 20:00:00 7.1 4 Nordeste 17 Norte 0 964.5 1.4 93
2020-01-09 19:00:00 7.2 10 Norte 11 Norte 0 964.5 2.4 85
2020-01-09 18:00:00 7.3 12 Sudoeste 32 Sudoeste 0 964.4 2.5 84
2020-01-09 17:00:00 7.2 21 Sudoeste 33 Sudoeste 0 963.1 -0.1 83
2020-01-09 16:00:00 7.1 27 Sudoeste 46 Sudoeste 0 962.1 -2.2 83
2020-01-09 15:00:00 8.8 26 Sudoeste 37 Sudoeste 0 961.9 -3.6 76
2020-01-09 14:00:00 7.7 30 Sudoeste 39 Sudoeste 0 963.2 -2.8 79
2020-01-09 13:00:00 7.6 15 Oeste 30 Sudoeste 0 964.3 -1.8 79
2020-01-09 12:00:00 5.7 25 Sudoeste 33 Sudoeste 0 965.5 -0.5 88
2020-01-09 11:00:00 4.3 19 Sudoeste 32 Sudoeste 0 966 -0.3 94
2020-01-09 10:00:00 3.1 16 Sudoeste 28 Sudoeste 0 966.1 -0.6 96
2020-01-09 09:00:00 2.8 18 Sudoeste 28 Sudoeste 0 966 -0.9 98
2020-01-09 08:00:00 2.4 15 Sudoeste 26 Sudoeste 0 966.3 -0.5 97
2020-01-09 07:00:00 2.1 15 Sudoeste 32 Sudoeste 0 966.7 -0.4 97
2020-01-09 06:00:00 2.2 21 Sudoeste 33 Sudoeste 0 966.9 -0.5 96
2020-01-09 05:00:00 2.2 21 Sudoeste 32 Sudoeste 0 966.8 -1.1 97
2020-01-09 04:00:00 2.7 13 Sudoeste 24 Sudoeste 0 967.1 -1.1 97
2020-01-09 03:00:00 2.8 14 Sudoeste 22 Sudoeste 0 967.4 -1 95
2020-01-09 02:00:00 2.7 15 Sudoeste -- -- -- 967.9 -0.5 97
2020-01-09 01:00:00 3.3 15 Sudoeste 22 Sudoeste 0 968.2 -0.3 94
2020-01-09 00:00:00 3.8 9 Sudoeste 15 Sudoeste 0 968.4 0 88
2020-01-08 23:00:00 4 8 Oeste 11 Oeste 0 968.4 0.1 90
2020-01-08 22:00:00 3.5 0 Calma 8 Norte 0 968.5 0.1 96
2020-01-08 21:00:00 4 2 Oeste 9 Nordeste 0 968.4 0.1 96
2020-01-08 20:00:00 4.9 9 Norte 11 Norte 0 968.3 0.2 93
2020-01-08 19:00:00 7.7 5 Sudoeste 8 Sudoeste 0 968.4 0.2 84
2020-01-08 18:00:00 12.5 -- -- -- -- 0 968.3 -0.2 68
2020-01-08 17:00:00 15 0 Calma 9 Sudeste 0 968.1 -1 59
2020-01-08 16:00:00 15.3 6 Sudeste 11 Sudeste 0 968.2 -1.7 57
2020-01-08 15:00:00 14.2 4 Sudeste 8 Sudeste 0 968.5 -2.6 59
2020-01-08 14:00:00 11.8 3 Sudeste 8 Sudeste 0 969.1 -2.5 70
2020-01-08 13:00:00 8.2 2 Norte 8 Este 0 969.9 -1.5 82
2020-01-08 12:00:00 3.5 3 Sur 8 Sudoeste 0 971.1 0.3 100
2020-01-08 11:00:00 1.4 4 Sudoeste 8 Sudoeste 0 971.6 0.9 100
2020-01-08 10:00:00 -0.1 0 Calma 5 Este 0 971.4 1 100
2020-01-08 09:00:00 -0.5 -- -- -- -- 0 970.8 0.7 100
2020-01-08 08:00:00 -0.3 3 Noroeste 5 Norte 0 970.7 0.3 100
2020-01-08 07:00:00 -0.3 5 Este 8 Este 0 970.4 -0.3 100
2020-01-08 06:00:00 -0.2 0 Calma -- -- 0 970.1 -0.6 100
2020-01-08 05:00:00 -0.1 3 Nordeste 5 Norte 0 970.4 -0.5 100
2020-01-08 04:00:00 -0.3 3 Norte 4 Nordeste 0 970.7 -0.6 99
2020-01-08 03:00:00 0 0 Calma 4 Sur 0 970.7 -0.8 99
2020-01-08 02:00:00 -0.1 0 Calma -- -- -- 970.9 -0.6 99
2020-01-08 01:00:00 0.4 3 Norte -- -- 0 971.3 -0.1 99
2020-01-08 00:00:00 0.4 3 Sudeste 8 Noroeste 0 971.5 0.3 99
2020-01-07 23:00:00 0.5 4 Sudoeste 8 Norte 0 971.5 0.5 98
2020-01-07 22:00:00 0.7 5 Norte 8 Norte 0 971.4 0.5 98
2020-01-07 21:00:00 2 3 Oeste 8 Este 0 971.2 0.6 97
2020-01-07 20:00:00 2.5 3 Este 8 Norte 0 971 0.5 96
2020-01-07 19:00:00 3.6 5 Norte -- -- 0 970.9 0.3 93
2020-01-07 18:00:00 7.1 0 Calma 4 Oeste 0 970.6 -0.2 82
2020-01-07 17:00:00 8.8 3 Oeste 5 Oeste 0 970.5 -0.8 76
2020-01-07 16:00:00 8 0 Calma 8 Oeste 0 970.6 -1.8 78
2020-01-07 15:00:00 5.3 2 Norte 9 Oeste 0 970.8 -2.4 88
2020-01-07 14:00:00 2.6 4 Este 8 Este 0 971.3 -2.1 99
2020-01-07 13:00:00 1.5 0 Calma 9 Oeste 0 972.4 -0.5 100
2020-01-07 12:00:00 0.7 3 Sudoeste 11 Sudoeste 0 973.2 0.7 100
2020-01-07 11:00:00 0 2 Este 8 Oeste 0 973.4 1.3 100
2020-01-07 10:00:00 -0.3 5 Sudoeste 9 Sur 0 972.9 0.9 100
2020-01-07 09:00:00 -0.4 5 Oeste 9 Oeste 0 972.5 0.4 100
2020-01-07 08:00:00 -0.2 0 Calma 8 Norte 0 972.1 0.2 100
2020-01-07 07:00:00 0.1 3 Oeste 9 Oeste 0 972 -0.2 100
2020-01-07 06:00:00 0.1 0 Calma 9 Nordeste 0 972.1 -0.3 100
2020-01-07 05:00:00 -0.6 6 Nordeste 8 Nordeste 0 971.9 -0.4 99
2020-01-07 04:00:00 -1.7 3 Noroeste 4 Oeste 0 972.2 -0.3 98
2020-01-07 03:00:00 -2.3 0 Calma 5 Sur 0 972.4 0.2 98
2020-01-07 02:00:00 -2.5 4 Nordeste -- -- -- 972.3 0.4 97
2020-01-07 01:00:00 -1.4 0 Calma 13 Norte 0 972.5 0.7 97
2020-01-07 00:00:00 -0.6 3 Nordeste 8 Nordeste 0 972.2 0.5 98
2020-01-06 23:00:00 -0.3 5 Este 11 Este 0 971.9 1.1 96
2020-01-06 22:00:00 0.5 4 Oeste 9 Este 0 971.8 1.6 94
2020-01-06 21:00:00 1.1 4 Este 15 Nordeste 0 971.7 2 94
2020-01-06 20:00:00 2.3 3 Norte 11 Sur 0 970.8 2.5 89
2020-01-06 19:00:00 3.8 3 Este 9 Este 0 970.2 2.5 84
2020-01-06 18:00:00 6.7 7 Norte -- -- 0 969.7 2.3 74
2020-01-06 17:00:00 11 2 Noroeste 5 Norte 0 968.3 0.4 55
2020-01-06 16:00:00 11.9 0 Calma 13 Sur 0 967.7 -1 52
2020-01-06 15:00:00 10.8 10 Sudoeste 15 Sudoeste 0 967.4 -2 55
2020-01-06 14:00:00 9.5 12 Sur 17 Sudoeste 0 967.9 -1.7 57
2020-01-06 13:00:00 7.7 9 Sur 18 Sudoeste 0 968.7 -0.6 64
2020-01-06 12:00:00 6.1 12 Sur 24 Sur 0 969.4 0.5 70
2020-01-06 11:00:00 3.7 9 Sur 13 Sur 0 969.6 1.1 81
2020-01-06 10:00:00 0.5 4 Sudeste 13 Sur 0 969.3 1.6 94